createdAt,value
2018-02-23T00:02:25.773Z,-0.10
2018-02-23T00:04:56.156Z,0.00
2018-02-23T00:07:25.264Z,-0.10
2018-02-23T00:09:55.553Z,0.00
2018-02-23T00:12:25.469Z,-0.10
2018-02-23T00:14:55.001Z,-0.10
2018-02-23T00:17:24.768Z,-0.10
2018-02-23T00:19:54.566Z,0.00
2018-02-23T00:22:36.239Z,-0.20
2018-02-23T00:25:06.048Z,-0.20
2018-02-23T00:27:35.509Z,-0.10
2018-02-23T00:30:05.365Z,-0.10
2018-02-23T00:32:35.661Z,-0.20
2018-02-23T00:35:05.117Z,-0.20
2018-02-23T00:37:35.707Z,-0.30
2018-02-23T00:40:05.494Z,-0.30
2018-02-23T00:42:35.304Z,-0.30
2018-02-23T00:45:05.152Z,-0.30
2018-02-23T00:47:35.188Z,-0.40
2018-02-23T00:50:04.965Z,-0.40
2018-02-23T00:52:34.782Z,-0.40
2018-02-23T00:55:05.444Z,-0.50
2018-02-23T00:57:35.217Z,-0.50
2018-02-23T01:00:04.381Z,-0.60
2018-02-23T01:02:33.877Z,-0.60
2018-02-23T01:05:04.118Z,-0.70
2018-02-23T01:07:34.718Z,-0.70
2018-02-23T01:10:04.979Z,-0.70
2018-02-23T01:12:34.790Z,-0.70
2018-02-23T01:15:04.560Z,-0.70
2018-02-23T01:17:34.368Z,-0.80
2018-02-23T01:20:04.237Z,-0.80
2018-02-23T01:22:34.048Z,-1.00
2018-02-23T01:25:03.858Z,-1.00
2018-02-23T01:27:33.356Z,-1.00
2018-02-23T01:30:03.941Z,-1.00
2018-02-23T01:32:33.711Z,-1.00
2018-02-23T01:35:03.518Z,-1.10
2018-02-23T01:37:33.063Z,-1.00
2018-02-23T01:40:02.880Z,-1.00
2018-02-23T01:42:32.722Z,-1.00
2018-02-23T01:45:02.558Z,-1.00
2018-02-23T01:47:33.094Z,-1.10
2018-02-23T01:50:02.898Z,-1.20
2018-02-23T01:52:33.493Z,-1.20
2018-02-23T01:55:03.287Z,-1.20
2018-02-23T01:57:33.000Z,-1.20
2018-02-23T02:00:02.602Z,-1.20
2018-02-23T02:02:32.142Z,-1.30
2018-02-23T02:05:01.928Z,-1.30
2018-02-23T02:07:31.817Z,-1.30
2018-02-23T02:10:01.618Z,-1.40
2018-02-23T02:12:31.439Z,-1.40
2018-02-23T02:15:01.221Z,-1.40
2018-02-23T02:17:33.753Z,-1.40
2018-02-23T02:20:02.682Z,-1.50
2018-02-23T02:22:31.914Z,-1.60
2018-02-23T02:25:01.758Z,-1.60
2018-02-23T02:27:31.542Z,-1.60
2018-02-23T02:30:01.461Z,-1.70
2018-02-23T02:32:31.083Z,-1.70
2018-02-23T02:35:00.886Z,-1.70
2018-02-23T02:37:30.687Z,-1.80
2018-02-23T02:40:00.461Z,-1.80
2018-02-23T02:42:30.141Z,-1.70
2018-02-23T02:44:59.799Z,-1.80
2018-02-23T02:47:29.580Z,-1.80
2018-02-23T02:49:59.733Z,-1.90
2018-02-23T02:52:30.282Z,-1.90
2018-02-23T02:55:00.175Z,-2.00
2018-02-23T02:57:30.128Z,-2.00
2018-02-23T02:59:59.931Z,-1.90
2018-02-23T03:02:29.858Z,-2.00
2018-02-23T03:04:59.700Z,-2.00
2018-02-23T03:07:29.558Z,-2.10
2018-02-23T03:10:00.211Z,-2.10
2018-02-23T03:12:30.080Z,-2.10
2018-02-23T03:14:59.857Z,-2.10
2018-02-23T03:17:29.671Z,-2.10
2018-02-23T03:19:59.487Z,-2.10
2018-02-23T03:22:29.474Z,-2.20
2018-02-23T03:24:59.400Z,-2.20
2018-02-23T03:27:30.246Z,-2.20
2018-02-23T03:30:00.111Z,-2.20
2018-02-23T03:32:30.913Z,-2.20
2018-02-23T03:35:01.967Z,-2.30
2018-02-23T03:37:32.619Z,-2.30
2018-02-23T03:40:02.190Z,-2.30
2018-02-23T03:42:32.173Z,-2.40
2018-02-23T03:45:03.329Z,-2.40
2018-02-23T03:47:34.804Z,-2.40
2018-02-23T03:50:04.764Z,-2.40
2018-02-23T03:52:35.490Z,-2.40
2018-02-23T03:55:05.511Z,-2.40
2018-02-23T03:57:35.417Z,-2.60
2018-02-23T04:00:05.131Z,-2.60
2018-02-23T04:02:34.938Z,-2.50
2018-02-23T04:05:06.634Z,-2.50
2018-02-23T04:07:36.693Z,-2.60
2018-02-23T04:10:06.574Z,-2.60
2018-02-23T04:12:36.495Z,-2.60
2018-02-23T04:15:06.437Z,-2.60
2018-02-23T04:17:36.947Z,-2.60
2018-02-23T04:20:08.186Z,-2.60
2018-02-23T04:22:39.206Z,-2.60
2018-02-23T04:25:10.506Z,-2.50
2018-02-23T04:27:43.153Z,-2.40
2018-02-23T04:30:13.052Z,-2.50
2018-02-23T04:32:45.351Z,-2.50
2018-02-23T04:35:18.282Z,-2.70
2018-02-23T04:37:49.575Z,-2.70
2018-02-23T04:40:19.370Z,-2.80
2018-02-23T04:42:53.185Z,-2.90
2018-02-23T04:45:23.704Z,-2.90
2018-02-23T04:47:53.618Z,-2.90
2018-02-23T04:50:22.866Z,-3.00
2018-02-23T04:52:52.756Z,-3.00
2018-02-23T04:55:23.379Z,-3.00
2018-02-23T04:57:55.031Z,-3.00
2018-02-23T05:00:24.613Z,-3.10
2018-02-23T05:02:55.042Z,-3.20
2018-02-23T05:05:25.628Z,-3.20
2018-02-23T05:07:57.044Z,-3.20
2018-02-23T05:10:26.945Z,-3.20
2018-02-23T05:12:58.640Z,-3.30
2018-02-23T05:15:29.180Z,-3.30
2018-02-23T05:17:59.004Z,-3.30
2018-02-23T05:20:28.848Z,-3.30
2018-02-23T05:22:58.737Z,-3.30
2018-02-23T05:25:28.519Z,-3.30
2018-02-23T05:27:59.098Z,-3.40
2018-02-23T05:30:28.864Z,-3.40
2018-02-23T05:32:59.481Z,-3.50
2018-02-23T05:35:30.061Z,-3.50
2018-02-23T05:37:59.940Z,-3.50
2018-02-23T05:40:29.749Z,-3.50
2018-02-23T05:42:59.585Z,-3.60
2018-02-23T05:45:29.371Z,-3.60
2018-02-23T05:47:59.173Z,-3.60
2018-02-23T05:50:29.712Z,-3.70
2018-02-23T05:52:59.512Z,-3.70
2018-02-23T05:55:30.049Z,-3.70
2018-02-23T05:57:59.880Z,-3.70
2018-02-23T06:00:29.473Z,-3.80
2018-02-23T06:02:59.284Z,-3.80
2018-02-23T06:05:29.136Z,-3.90
2018-02-23T06:07:58.944Z,-3.80
2018-02-23T06:10:28.720Z,-3.80
2018-02-23T06:12:58.556Z,-4.00
2018-02-23T06:15:33.888Z,-4.00
2018-02-23T06:18:08.689Z,-4.00
2018-02-23T06:20:38.329Z,-4.00
2018-02-23T06:23:08.141Z,-4.00
2018-02-23T06:25:38.170Z,-3.90
2018-02-23T06:28:08.380Z,-3.90
2018-02-23T06:30:38.387Z,-3.80
2018-02-23T06:33:08.964Z,-3.90
2018-02-23T06:35:38.731Z,-3.90
2018-02-23T06:38:08.541Z,-3.80
2018-02-23T06:40:38.319Z,-3.90
2018-02-23T06:43:08.622Z,-3.90
2018-02-23T06:45:38.507Z,-4.00
2018-02-23T06:48:08.303Z,-3.90
2018-02-23T06:50:38.097Z,-3.90
2018-02-23T06:53:08.667Z,-3.80
2018-02-23T06:55:38.467Z,-3.80
2018-02-23T06:58:08.284Z,-3.80
2018-02-23T07:00:38.134Z,-3.80
2018-02-23T07:03:07.907Z,-3.70
2018-02-23T07:05:37.766Z,-3.60
2018-02-23T07:08:07.546Z,-3.50
2018-02-23T07:10:37.449Z,-3.40
2018-02-23T07:13:07.249Z,-3.40
2018-02-23T07:15:37.178Z,-3.50
2018-02-23T07:18:06.960Z,-3.30
2018-02-23T07:20:37.532Z,-3.20
2018-02-23T07:23:07.333Z,-3.20
2018-02-23T07:25:36.949Z,-3.30
2018-02-23T07:28:06.774Z,-3.10
2018-02-23T07:30:36.584Z,-3.10
2018-02-23T07:33:06.622Z,-2.80
2018-02-23T07:35:36.452Z,-2.60
2018-02-23T07:38:11.908Z,-2.50
2018-02-23T07:40:41.945Z,-2.30
2018-02-23T07:43:12.538Z,-1.90
2018-02-23T07:45:41.992Z,-1.90
2018-02-23T07:48:11.821Z,-2.00
2018-02-23T07:50:41.405Z,-2.10
2018-02-23T07:53:11.818Z,-1.80
2018-02-23T07:55:42.367Z,-1.60
2018-02-23T07:58:12.059Z,-1.60
2018-02-23T08:00:45.323Z,-2.00
2018-02-23T08:03:15.130Z,-2.00
2018-02-23T08:05:44.741Z,-2.00
2018-02-23T08:08:14.589Z,-2.00
2018-02-23T08:10:45.149Z,-1.60
2018-02-23T08:13:14.957Z,-1.70
2018-02-23T08:15:45.096Z,-1.40
2018-02-23T08:18:14.880Z,-1.30
2018-02-23T08:20:44.738Z,-1.30
2018-02-23T08:23:14.524Z,-1.20
2018-02-23T08:25:44.334Z,-1.10
2018-02-23T08:28:14.164Z,-1.00
2018-02-23T08:30:43.945Z,-1.10
2018-02-23T08:33:13.753Z,-0.90
2018-02-23T08:35:43.566Z,-0.70
2018-02-23T08:38:13.347Z,-0.60
2018-02-23T08:40:43.149Z,-0.40
2018-02-23T08:43:12.921Z,-0.40
2018-02-23T08:45:42.726Z,-0.10
2018-02-23T08:48:11.865Z,-0.20
2018-02-23T08:50:41.639Z,-0.10
2018-02-23T08:53:11.438Z,0.00
2018-02-23T08:55:41.260Z,0.40
2018-02-23T08:58:11.031Z,0.60
2018-02-23T09:00:47.481Z,0.80
2018-02-23T09:03:17.862Z,0.90
2018-02-23T09:05:47.835Z,0.90
2018-02-23T09:08:17.596Z,0.90
2018-02-23T09:10:47.413Z,0.80
2018-02-23T09:13:17.210Z,0.50
2018-02-23T09:15:47.013Z,0.40
2018-02-23T09:18:17.545Z,0.70
2018-02-23T09:20:47.109Z,0.70
2018-02-23T09:23:16.993Z,0.50
2018-02-23T09:25:46.982Z,0.60
2018-02-23T09:28:17.549Z,0.50
2018-02-23T09:30:47.349Z,0.40
2018-02-23T09:33:16.451Z,0.40
2018-02-23T09:35:45.992Z,1.00
2018-02-23T09:38:15.811Z,1.40
2018-02-23T09:40:45.606Z,1.90
2018-02-23T09:43:15.410Z,2.00
2018-02-23T09:45:45.192Z,2.30
2018-02-23T09:48:15.001Z,2.20
2018-02-23T09:50:44.822Z,2.30
2018-02-23T09:53:14.625Z,2.60
2018-02-23T09:55:44.412Z,2.90
2018-02-23T09:58:13.935Z,3.10
2018-02-23T10:00:44.754Z,3.00
2018-02-23T10:03:14.565Z,3.00
2018-02-23T10:05:44.420Z,3.00
2018-02-23T10:08:14.193Z,3.00
2018-02-23T10:10:43.992Z,2.80
2018-02-23T10:13:13.794Z,2.50
2018-02-23T10:15:43.572Z,2.10
2018-02-23T10:18:13.379Z,2.20
2018-02-23T10:20:43.189Z,2.00
2018-02-23T10:23:12.988Z,1.80
2018-02-23T10:25:44.481Z,2.00
2018-02-23T10:28:14.248Z,2.00
2018-02-23T10:30:44.825Z,1.50
2018-02-23T10:33:14.588Z,1.50
2018-02-23T10:35:44.969Z,1.60
2018-02-23T10:38:14.557Z,1.60
2018-02-23T10:40:44.162Z,1.80
2018-02-23T10:43:13.745Z,2.00
2018-02-23T10:45:43.393Z,2.20
2018-02-23T10:48:13.181Z,2.20
2018-02-23T10:50:42.990Z,2.10
2018-02-23T10:53:12.591Z,2.10
2018-02-23T10:55:42.359Z,2.30
2018-02-23T10:58:11.974Z,2.20
2018-02-23T11:00:41.788Z,2.10
2018-02-23T11:03:12.074Z,2.40
2018-02-23T11:05:41.855Z,2.40
2018-02-23T11:08:12.382Z,2.10
2018-02-23T11:10:44.132Z,1.70
2018-02-23T11:13:14.839Z,1.80
2018-02-23T11:15:44.732Z,1.70
2018-02-23T11:18:14.545Z,1.40
2018-02-23T11:20:44.369Z,1.60
2018-02-23T11:23:14.177Z,1.90
2018-02-23T11:25:44.027Z,2.20
2018-02-23T11:28:13.867Z,2.50
2018-02-23T11:30:44.602Z,2.90
2018-02-23T11:33:14.417Z,2.90
2018-02-23T11:35:44.205Z,3.10
2018-02-23T11:38:15.584Z,3.10
2018-02-23T11:40:45.363Z,3.10
2018-02-23T11:43:15.933Z,4.20
2018-02-23T11:45:45.747Z,4.20
2018-02-23T11:48:15.521Z,4.90
2018-02-23T11:50:45.409Z,5.90
2018-02-23T11:53:15.185Z,6.60
2018-02-23T11:55:44.715Z,5.60
2018-02-23T11:58:14.300Z,4.90
2018-02-23T12:00:43.906Z,5.00
2018-02-23T12:03:13.725Z,5.70
2018-02-23T12:05:43.506Z,6.30
2018-02-23T12:08:14.083Z,6.70
2018-02-23T12:10:43.874Z,6.70
2018-02-23T12:13:13.853Z,7.40
2018-02-23T12:15:44.440Z,8.50
2018-02-23T12:18:14.232Z,8.50
2018-02-23T12:20:44.096Z,8.10
2018-02-23T12:23:13.881Z,7.40
2018-02-23T12:25:43.768Z,7.80
2018-02-23T12:28:13.536Z,8.60
2018-02-23T12:30:43.369Z,9.70
2018-02-23T12:33:13.948Z,8.40
2018-02-23T12:35:43.742Z,8.40
2018-02-23T12:38:13.554Z,7.80
2018-02-23T12:40:43.337Z,7.20
2018-02-23T12:43:13.932Z,6.80
2018-02-23T12:45:43.822Z,6.80
2018-02-23T12:48:13.692Z,7.10
2018-02-23T12:50:44.266Z,6.90
2018-02-23T12:53:14.038Z,6.90
2018-02-23T12:55:44.633Z,8.80
2018-02-23T12:58:14.397Z,8.80
2018-02-23T13:00:44.982Z,10.40
2018-02-23T13:03:15.286Z,10.50
2018-02-23T13:05:45.076Z,10.50
2018-02-23T13:08:14.880Z,9.70
2018-02-23T13:10:44.393Z,9.50
2018-02-23T13:13:14.168Z,8.80
2018-02-23T13:15:43.796Z,9.10
2018-02-23T13:18:14.322Z,9.80
2018-02-23T13:20:43.850Z,9.80
2018-02-23T13:23:13.663Z,10.40
2018-02-23T13:25:43.502Z,9.80
2018-02-23T13:28:19.805Z,9.80
2018-02-23T13:30:49.660Z,9.50
2018-02-23T13:33:19.304Z,9.90
2018-02-23T13:35:48.986Z,9.20
2018-02-23T13:38:18.820Z,9.00
2018-02-23T13:40:54.597Z,9.50
2018-02-23T13:43:24.138Z,9.50
2018-02-23T13:45:53.993Z,10.50
2018-02-23T13:48:23.608Z,10.40
2018-02-23T13:50:53.405Z,10.40
2018-02-23T13:53:23.032Z,10.60
2018-02-23T13:55:52.849Z,11.30
2018-02-23T13:58:22.656Z,11.80
2018-02-23T14:00:52.523Z,12.10
2018-02-23T14:03:22.333Z,11.40
2018-02-23T14:05:52.065Z,11.40
2018-02-23T14:08:21.757Z,11.80
2018-02-23T14:10:51.290Z,12.30
2018-02-23T14:13:21.104Z,11.80
2018-02-23T14:15:50.915Z,10.60
2018-02-23T14:18:20.765Z,9.40
2018-02-23T14:20:50.569Z,8.20
2018-02-23T14:23:20.378Z,8.00
2018-02-23T14:25:50.201Z,7.80
2018-02-23T14:28:19.986Z,7.90
2018-02-23T14:30:49.777Z,8.20
2018-02-23T14:33:19.552Z,8.50
2018-02-23T14:35:49.341Z,8.00
2018-02-23T14:38:19.138Z,8.30
2018-02-23T14:40:48.904Z,8.50
2018-02-23T14:43:19.489Z,8.20
2018-02-23T14:45:49.251Z,8.20
2018-02-23T14:51:15.535Z,8.60
2018-02-23T14:53:45.423Z,9.20
2018-02-23T14:56:15.233Z,9.00
2018-02-23T14:58:45.047Z,8.80
2018-02-23T15:01:14.540Z,7.90
2018-02-23T15:03:44.349Z,7.30
2018-02-23T15:06:14.950Z,7.10
2018-02-23T15:08:44.774Z,7.10
2018-02-23T15:11:14.544Z,6.30
2018-02-23T15:13:44.364Z,5.40
2018-02-23T15:16:14.172Z,4.80
2018-02-23T15:18:43.976Z,4.30
2018-02-23T15:21:13.779Z,4.40
2018-02-23T15:23:43.590Z,4.30
2018-02-23T15:26:13.403Z,4.20
2018-02-23T15:28:43.197Z,3.90
2018-02-23T15:31:25.245Z,2.80
2018-02-23T15:33:54.751Z,2.80
2018-02-23T15:36:24.399Z,2.30
2018-02-23T15:38:54.962Z,2.10
2018-02-23T15:41:24.724Z,2.00
2018-02-23T15:43:54.541Z,2.00
2018-02-23T15:46:24.120Z,2.00
2018-02-23T15:49:13.459Z,1.90
2018-02-23T15:51:48.827Z,1.80
2018-02-23T15:54:18.443Z,1.80
2018-02-23T15:56:48.121Z,1.80
2018-02-23T15:59:17.748Z,1.70
2018-02-23T16:01:47.375Z,1.50
2018-02-23T16:04:16.964Z,1.40
2018-02-23T16:06:46.606Z,1.50
2018-02-23T16:09:17.905Z,1.50
2018-02-23T16:11:47.531Z,1.50
2018-02-23T16:14:16.883Z,1.40
2018-02-23T16:16:46.462Z,1.20
2018-02-23T16:19:16.075Z,1.20
2018-02-23T16:21:45.843Z,1.20
2018-02-23T16:24:15.657Z,1.10
2018-02-23T16:26:45.425Z,0.90
2018-02-23T16:29:15.261Z,0.70
2018-02-23T16:31:45.216Z,0.50
2018-02-23T16:34:15.002Z,0.40
2018-02-23T16:36:47.837Z,0.30
2018-02-23T16:39:20.894Z,0.30
2018-02-23T16:41:50.666Z,0.30
2018-02-23T16:44:21.576Z,0.20
2018-02-23T16:46:52.420Z,0.20
2018-02-23T16:49:22.299Z,0.10
2018-02-23T16:51:52.070Z,0.20
2018-02-23T16:54:22.645Z,0.30
2018-02-23T16:56:52.445Z,0.30
2018-02-23T16:59:22.229Z,0.30
2018-02-23T17:01:52.801Z,0.30
2018-02-23T17:04:22.574Z,0.30
2018-02-23T17:06:53.145Z,0.30
2018-02-23T17:09:22.892Z,0.30
2018-02-23T17:11:52.692Z,0.30
2018-02-23T17:14:22.477Z,0.30
2018-02-23T17:16:52.300Z,0.20
2018-02-23T17:19:22.081Z,0.10
2018-02-23T17:21:51.896Z,0.10
2018-02-23T17:24:21.683Z,0.00
2018-02-23T17:26:52.263Z,0.10
2018-02-23T17:29:22.081Z,0.00
2018-02-23T17:31:51.917Z,-0.10
2018-02-23T17:34:21.735Z,-0.10
2018-02-23T17:36:51.542Z,-0.10
2018-02-23T17:39:21.335Z,-0.20
2018-02-23T17:41:51.159Z,-0.10
2018-02-23T17:44:21.120Z,-0.20
2018-02-23T17:46:51.905Z,-0.20
2018-02-23T17:49:21.521Z,-0.20
2018-02-23T17:51:51.324Z,-0.20
2018-02-23T17:54:21.153Z,-0.30
2018-02-23T17:56:50.961Z,-0.30
2018-02-23T17:59:20.811Z,-0.30
2018-02-23T18:01:50.658Z,-0.30
2018-02-23T18:04:20.496Z,-0.40
2018-02-23T18:06:50.287Z,-0.60
2018-02-23T18:09:19.837Z,-0.70
2018-02-23T18:11:50.449Z,-0.70
2018-02-23T18:14:20.233Z,-0.70
2018-02-23T18:16:50.477Z,-0.80
2018-02-23T18:19:20.274Z,-0.70
2018-02-23T18:21:50.090Z,-0.70
2018-02-23T18:24:19.913Z,-0.70
2018-02-23T18:26:49.688Z,-0.60
2018-02-23T18:29:19.223Z,-0.60
2018-02-23T18:31:49.050Z,-0.60
2018-02-23T18:34:20.356Z,-0.70
2018-02-23T18:36:50.177Z,-0.80
2018-02-23T18:39:19.571Z,-0.90
2018-02-23T18:41:49.402Z,-1.00
2018-02-23T18:44:19.385Z,-0.90
2018-02-23T18:46:49.972Z,-0.70
2018-02-23T18:49:19.746Z,-0.70
2018-02-23T18:51:49.308Z,-0.80
2018-02-23T18:54:20.045Z,-0.80
2018-02-23T18:56:49.725Z,-0.80
2018-02-23T18:59:19.521Z,-0.90
2018-02-23T19:01:49.360Z,-0.90
2018-02-23T19:04:19.440Z,-0.90
2018-02-23T19:06:49.053Z,-0.90
2018-02-23T19:09:18.873Z,-1.00
2018-02-23T19:11:48.661Z,-1.00
2018-02-23T19:14:17.999Z,-1.00
2018-02-23T19:16:47.808Z,-1.10
2018-02-23T19:19:17.666Z,-1.10
2018-02-23T19:21:47.541Z,-1.10
2018-02-23T19:24:17.405Z,-1.10
2018-02-23T19:26:47.959Z,-1.20
2018-02-23T19:29:17.591Z,-1.20
2018-02-23T19:31:47.396Z,-1.20
2018-02-23T19:34:17.223Z,-1.30
2018-02-23T19:36:46.738Z,-1.30
2018-02-23T19:39:16.560Z,-1.30
2018-02-23T19:41:46.348Z,-1.50
2018-02-23T19:44:16.161Z,-1.50
2018-02-23T19:46:45.965Z,-1.50
2018-02-23T19:49:15.751Z,-1.60
2018-02-23T19:51:45.636Z,-1.50
2018-02-23T19:54:15.149Z,-1.60
2018-02-23T19:56:44.956Z,-1.60
2018-02-23T19:59:15.545Z,-1.50
2018-02-23T20:01:45.346Z,-1.50
2018-02-23T20:04:15.173Z,-1.40
2018-02-23T20:06:44.948Z,-1.40
2018-02-23T20:09:15.554Z,-1.40
2018-02-23T20:11:46.130Z,-1.40
2018-02-23T20:14:15.957Z,-1.40
2018-02-23T20:16:45.755Z,-1.40
2018-02-23T20:19:15.594Z,-1.40
2018-02-23T20:21:45.385Z,-1.40
2018-02-23T20:24:17.163Z,-1.50
2018-02-23T20:26:47.822Z,-1.50
2018-02-23T20:29:19.178Z,-1.50
2018-02-23T20:31:49.784Z,-1.50
2018-02-23T20:34:19.592Z,-1.50
2018-02-23T20:36:49.437Z,-1.50
2018-02-23T20:39:19.234Z,-1.60
2018-02-23T20:41:49.116Z,-1.50
2018-02-23T20:44:19.027Z,-1.50
2018-02-23T20:46:48.837Z,-1.50
2018-02-23T20:49:18.644Z,-1.60
2018-02-23T20:51:48.498Z,-1.70
2018-02-23T20:54:18.269Z,-1.80
2018-02-23T20:56:47.752Z,-1.90
2018-02-23T20:59:18.377Z,-1.90
2018-02-23T21:01:48.950Z,-1.90
2018-02-23T21:04:18.864Z,-1.90
2018-02-23T21:06:48.695Z,-2.00
2018-02-23T21:09:18.721Z,-2.00
2018-02-23T21:11:48.487Z,-2.10
2018-02-23T21:14:18.293Z,-2.00
2018-02-23T21:16:48.145Z,-2.00
2018-02-23T21:19:17.972Z,-2.00
2018-02-23T21:21:47.790Z,-2.10
2018-02-23T21:24:17.291Z,-2.20
2018-02-23T21:26:47.106Z,-2.10
2018-02-23T21:29:16.942Z,-2.20
2018-02-23T21:31:46.740Z,-2.20
2018-02-23T21:34:16.562Z,-2.10
2018-02-23T21:36:46.351Z,-2.20
2018-02-23T21:39:16.215Z,-2.20
2018-02-23T21:41:53.696Z,-2.10
2018-02-23T21:44:23.741Z,-2.00
2018-02-23T21:46:53.229Z,-2.10
2018-02-23T21:49:23.907Z,-2.10
2018-02-23T21:51:53.672Z,-2.10
2018-02-23T21:54:24.282Z,-2.10
2018-02-23T21:56:55.597Z,-2.20
2018-02-23T21:59:25.187Z,-2.20
2018-02-23T22:01:55.017Z,-2.10
2018-02-23T22:04:24.815Z,-2.10
2018-02-23T22:06:54.636Z,-2.20
2018-02-23T22:09:24.412Z,-2.20
2018-02-23T22:11:55.042Z,-2.30
2018-02-23T22:14:25.589Z,-2.30
2018-02-23T22:16:55.155Z,-2.40
2018-02-23T22:19:24.978Z,-2.30
2018-02-23T22:21:54.819Z,-2.40
2018-02-23T22:24:24.594Z,-2.40
2018-02-23T22:26:55.407Z,-2.50
2018-02-23T22:29:25.004Z,-2.50
2018-02-23T22:31:54.844Z,-2.40
2018-02-23T22:34:24.672Z,-2.40
2018-02-23T22:36:54.454Z,-2.40
2018-02-23T22:39:24.075Z,-2.40
2018-02-23T22:41:53.908Z,-2.40
2018-02-23T22:44:23.712Z,-2.50
2018-02-23T22:46:53.497Z,-2.50
2018-02-23T22:49:23.348Z,-2.40
2018-02-23T22:51:53.907Z,-2.50
2018-02-23T22:54:23.739Z,-2.60
2018-02-23T22:56:53.537Z,-2.60
2018-02-23T22:59:23.317Z,-2.60
2018-02-23T23:01:53.885Z,-2.60
2018-02-23T23:04:23.401Z,-2.60
2018-02-23T23:06:53.210Z,-2.60
2018-02-23T23:09:22.733Z,-2.60
2018-02-23T23:11:52.549Z,-2.60
2018-02-23T23:14:22.357Z,-2.70
2018-02-23T23:16:52.150Z,-2.70
2018-02-23T23:19:21.961Z,-2.70
2018-02-23T23:21:51.732Z,-2.60
2018-02-23T23:24:21.549Z,-2.60
2018-02-23T23:26:52.110Z,-2.70
2018-02-23T23:29:21.953Z,-2.70
2018-02-23T23:31:51.444Z,-2.60
2018-02-23T23:34:21.265Z,-2.70
2018-02-23T23:36:51.045Z,-2.70
2018-02-23T23:39:20.207Z,-2.70
2018-02-23T23:41:49.743Z,-2.70
2018-02-23T23:44:20.389Z,-2.80
2018-02-23T23:46:50.534Z,-2.80
2018-02-23T23:49:20.377Z,-2.70
2018-02-23T23:51:50.168Z,-2.70
2018-02-23T23:54:19.999Z,-2.70
2018-02-23T23:56:49.451Z,-2.70
2018-02-23T23:59:19.258Z,-2.70
